Time;durP1;ratioP1;P1;durP2;ratioP2;P2;SDS_P1;SDS_P2;PMS_P1;PMS_P2;Temp;Humidity;BMP_temperature;BMP_pressure;BME280_temperature;BME280_humidity;BME280_pressure;Samples;Min_cycle;Max_cycle;Signal;HPM_P1;HPM_P2
2023/02/19 00:01:38;;;;;;;16.20;9.90;;;10.10;99.90;;;;;;4144754;28;20544;-70
2023/02/19 00:03:40;;;;;;;15.13;8.07;;;10.10;99.90;;;;;;4145420;28;20917;-70
2023/02/19 00:05:41;;;;;;;15.87;9.63;;;10.10;99.90;;;;;;4144086;28;20072;-68
2023/02/19 00:07:42;;;;;;;14.20;8.97;;;10.10;99.90;;;;;;4145261;28;20046;-69
2023/02/19 00:09:43;;;;;;;16.43;9.33;;;10.00;99.90;;;;;;4143844;28;20092;-66
2023/02/19 00:11:46;;;;;;;15.70;8.87;;;10.00;99.90;;;;;;4145562;28;20029;-64
2023/02/19 00:13:49;;;;;;;16.90;8.80;;;10.10;99.90;;;;;;4144521;28;20153;-67
2023/02/19 00:15:51;;;;;;;17.87;9.27;;;10.10;99.90;;;;;;4145744;28;20545;-62
2023/02/19 00:17:52;;;;;;;15.77;9.27;;;10.10;99.90;;;;;;4144452;28;20034;-62
2023/02/19 00:19:53;;;;;;;18.97;9.73;;;10.10;99.90;;;;;;4145600;28;20433;-64
2023/02/19 00:21:54;;;;;;;18.90;10.10;;;10.00;99.90;;;;;;4144296;28;20080;-65
2023/02/19 00:24:01;;;;;;;16.67;9.40;;;10.00;99.90;;;;;;4145429;28;20429;-68
2023/02/19 00:26:04;;;;;;;15.87;9.23;;;10.00;99.90;;;;;;4144314;28;20034;-62
2023/02/19 00:28:05;;;;;;;15.20;9.57;;;10.00;99.90;;;;;;4145060;28;20064;-64
2023/02/19 00:30:07;;;;;;;16.30;9.63;;;9.90;99.90;;;;;;4144485;28;20084;-67
2023/02/19 00:32:08;;;;;;;15.43;9.47;;;9.90;99.90;;;;;;4144130;28;20038;-63
2023/02/19 00:34:10;;;;;;;17.43;9.80;;;9.90;99.90;;;;;;4144587;28;20029;-62
2023/02/19 00:36:12;;;;;;;16.17;8.60;;;9.90;99.90;;;;;;4144224;28;20509;-66
2023/02/19 00:38:13;;;;;;;19.07;9.87;;;9.90;99.90;;;;;;4145134;28;20022;-63
2023/02/19 00:40:15;;;;;;;15.53;9.10;;;9.90;99.90;;;;;;4144138;28;20085;-66
2023/02/19 00:42:16;;;;;;;15.53;9.33;;;9.80;99.90;;;;;;4145355;28;20026;-64
2023/02/19 00:44:17;;;;;;;17.70;9.70;;;9.80;99.90;;;;;;4143891;28;20030;-67
2023/02/19 00:46:21;;;;;;;15.80;9.40;;;9.80;99.90;;;;;;4143765;28;20102;-62
2023/02/19 00:48:22;;;;;;;14.77;8.77;;;9.80;99.90;;;;;;4143204;28;20046;-64
2023/02/19 00:50:23;;;;;;;17.23;8.47;;;9.80;99.90;;;;;;4144760;28;20088;-63
2023/02/19 00:52:24;;;;;;;15.97;9.50;;;9.80;99.90;;;;;;4143796;28;20103;-63
2023/02/19 00:54:26;;;;;;;14.33;9.23;;;9.80;99.90;;;;;;4144821;28;20026;-63
2023/02/19 00:56:27;;;;;;;16.20;8.53;;;9.80;99.90;;;;;;4144031;28;20124;-63
2023/02/19 00:58:29;;;;;;;16.77;9.53;;;9.70;99.90;;;;;;4145037;28;20034;-63
2023/02/19 01:00:32;;;;;;;16.87;9.23;;;9.70;99.90;;;;;;4143471;28;20050;-65
2023/02/19 01:02:33;;;;;;;14.60;9.07;;;9.70;99.90;;;;;;4144633;28;20034;-67
2023/02/19 01:04:34;;;;;;;14.57;8.17;;;9.60;99.90;;;;;;4144371;28;20085;-62
2023/02/19 01:06:36;;;;;;;12.37;7.83;;;9.60;99.90;;;;;;4143568;28;20489;-64
2023/02/19 01:08:37;;;;;;;18.53;9.70;;;9.60;99.90;;;;;;4144327;28;20045;-68
2023/02/19 01:10:38;;;;;;;17.40;9.33;;;9.60;99.90;;;;;;4143634;28;20080;-62
2023/02/19 01:12:39;;;;;;;15.47;8.93;;;9.50;99.90;;;;;;4145362;28;20038;-67
2023/02/19 01:14:41;;;;;;;18.10;8.63;;;9.50;99.90;;;;;;4143980;28;20080;-64
2023/02/19 01:16:42;;;;;;;15.40;8.73;;;9.50;99.90;;;;;;4145255;28;20481;-68
2023/02/19 01:18:43;;;;;;;17.00;9.20;;;9.50;99.90;;;;;;4143848;28;20049;-66
2023/02/19 01:20:45;;;;;;;16.07;9.00;;;9.40;99.90;;;;;;4145203;28;20108;-65
2023/02/19 01:22:46;;;;;;;16.17;8.53;;;9.50;99.90;;;;;;4144312;28;20022;-66
2023/02/19 01:24:47;;;;;;;15.13;9.07;;;9.50;99.90;;;;;;4145046;28;20448;-67
2023/02/19 01:26:48;;;;;;;13.17;8.63;;;9.50;99.90;;;;;;4143841;28;20046;-64
2023/02/19 01:28:49;;;;;;;13.60;8.23;;;9.50;99.90;;;;;;4145025;28;20038;-67
2023/02/19 01:30:51;;;;;;;14.23;8.60;;;9.50;99.90;;;;;;4144159;28;20072;-67
2023/02/19 01:32:52;;;;;;;14.87;8.07;;;9.40;99.90;;;;;;4144738;28;20052;-63
2023/02/19 01:34:53;;;;;;;15.00;8.60;;;9.50;99.90;;;;;;4144366;28;20470;-63
2023/02/19 01:36:54;;;;;;;16.20;8.87;;;9.40;99.90;;;;;;4145631;28;20104;-64
2023/02/19 01:38:55;;;;;;;15.00;8.00;;;9.40;99.90;;;;;;4147908;28;20474;-66
2023/02/19 01:40:59;;;;;;;14.60;9.23;;;9.30;99.90;;;;;;4146560;28;20037;-65
2023/02/19 01:43:00;;;;;;;16.50;9.33;;;9.30;99.90;;;;;;4148068;28;20433;-64
2023/02/19 01:45:25;;;;;;;12.77;8.33;;;9.30;99.90;;;;;;4147115;28;20076;-68
2023/02/19 01:47:26;;;;;;;16.37;9.00;;;9.20;99.90;;;;;;4147644;28;20042;-66
2023/02/19 01:49:31;;;;;;;15.20;9.23;;;9.20;99.90;;;;;;4146843;28;20359;-62
2023/02/19 01:51:36;;;;;;;13.67;8.60;;;9.20;99.90;;;;;;4147916;28;20088;-62
2023/02/19 01:53:44;;;;;;;11.93;7.87;;;9.20;99.90;;;;;;4146964;28;20084;-62
2023/02/19 01:55:48;;;;;;;15.63;8.40;;;9.20;99.90;;;;;;4147758;28;20092;-67
2023/02/19 01:57:53;;;;;;;13.60;8.27;;;9.10;99.90;;;;;;4145121;28;20038;-62
2023/02/19 01:59:58;;;;;;;12.87;8.07;;;9.20;99.90;;;;;;4147904;28;20092;-65
2023/02/19 02:02:00;;;;;;;14.67;8.23;;;9.20;99.90;;;;;;4146639;28;20437;-63
2023/02/19 02:04:02;;;;;;;11.93;7.50;;;9.10;99.90;;;;;;4147590;28;20033;-64
2023/02/19 02:06:06;;;;;;;15.67;8.27;;;9.10;99.90;;;;;;4146539;28;20030;-68
2023/02/19 02:10:28;;;;;;;13.07;7.75;;;9.10;99.90;;;;;;4146557;28;20038;-66
2023/02/19 02:12:29;;;;;;;15.43;8.70;;;9.10;99.90;;;;;;4147534;28;20034;-65
2023/02/19 02:14:35;;;;;;;15.77;9.13;;;9.10;99.90;;;;;;4146566;28;20096;-65
2023/02/19 02:16:39;;;;;;;14.77;8.87;;;9.00;99.90;;;;;;4147670;28;20025;-64
2023/02/19 02:19:13;;;;;;;13.53;7.93;;;9.10;99.90;;;;;;4146399;28;20076;-63
2023/02/19 02:21:14;;;;;;;14.97;8.30;;;9.10;99.90;;;;;;4147392;28;20033;-62
2023/02/19 02:23:30;;;;;;;14.07;8.03;;;9.00;99.90;;;;;;4146679;28;20072;-65
2023/02/19 02:25:53;;;;;;;14.53;8.70;;;9.00;99.90;;;;;;4147501;28;20482;-66
2023/02/19 02:28:13;;;;;;;14.43;8.03;;;9.00;99.90;;;;;;4146332;28;20033;-63
2023/02/19 02:30:30;;;;;;;14.10;7.93;;;9.00;99.90;;;;;;4147481;28;20057;-68
2023/02/19 02:33:13;;;;;;;15.27;8.33;;;9.00;99.90;;;;;;4146148;28;20041;-63
2023/02/19 02:35:18;;;;;;;16.53;8.57;;;9.00;99.90;;;;;;4125317;28;20884;-62
2023/02/19 02:37:19;;;;;;;13.17;7.80;;;9.00;99.90;;;;;;4146347;28;20072;-63
2023/02/19 02:39:24;;;;;;;13.37;8.30;;;9.00;99.90;;;;;;4146945;28;20541;-63
2023/02/19 02:41:26;;;;;;;14.60;8.60;;;8.90;99.90;;;;;;4145794;28;20088;-64
2023/02/19 02:43:27;;;;;;;19.30;9.93;;;8.90;99.90;;;;;;4147225;28;20080;-63
2023/02/19 02:45:35;;;;;;;13.83;8.13;;;8.80;99.90;;;;;;4146043;28;20030;-63
2023/02/19 02:47:53;;;;;;;14.60;8.27;;;8.80;99.90;;;;;;4146979;28;20046;-63
2023/02/19 02:50:05;;;;;;;14.73;8.07;;;8.80;99.90;;;;;;4146020;28;20022;-63
2023/02/19 02:55:01;;;;;;;12.93;7.80;;;8.80;99.90;;;;;;4147160;28;20419;-62
2023/02/19 02:56:55;;;;;;;13.33;8.60;;;8.70;99.90;;;;;;4146579;28;20152;-62
2023/02/19 02:58:57;;;;;;;13.60;7.93;;;8.70;99.90;;;;;;4145948;28;20037;-62
2023/02/19 03:03:37;;;;;;;14.07;8.57;;;8.60;99.90;;;;;;4146333;28;20096;-61
2023/02/19 03:05:50;;;;;;;12.23;7.80;;;8.50;99.90;;;;;;4146127;28;20033;-62
2023/02/19 03:07:54;;;;;;;14.37;8.30;;;8.40;99.90;;;;;;4146045;28;20061;-64
2023/02/19 03:09:57;;;;;;;11.83;7.93;;;8.40;99.90;;;;;;4145030;28;20108;-62
2023/02/19 03:19:24;;;;;;;14.70;8.27;;;8.30;99.90;;;;;;4145500;28;20165;-63
2023/02/19 03:21:27;;;;;;;13.03;7.87;;;8.30;99.90;;;;;;4145071;28;20457;-63
2023/02/19 03:26:03;;;;;;;12.93;8.07;;;8.30;99.90;;;;;;4146819;28;20084;-62
2023/02/19 03:28:07;;;;;;;14.43;9.37;;;8.20;99.90;;;;;;4145275;28;20034;-63
2023/02/19 03:30:14;;;;;;;14.20;8.03;;;8.20;99.90;;;;;;4146653;28;20100;-63
2023/02/19 03:32:24;;;;;;;14.43;8.40;;;8.20;99.90;;;;;;4145231;28;20037;-62
2023/02/19 03:34:36;;;;;;;12.68;7.70;;;8.10;99.90;;;;;;4146414;28;20383;-62
2023/02/19 03:36:49;;;;;;;11.97;7.17;;;8.10;99.90;;;;;;4144952;28;20470;-64
2023/02/19 03:39:03;;;;;;;16.17;7.93;;;8.00;99.90;;;;;;4146535;28;20034;-64
2023/02/19 03:41:14;;;;;;;13.93;8.70;;;8.00;99.90;;;;;;4145210;28;20076;-63
2023/02/19 03:43:18;;;;;;;16.07;8.67;;;8.00;99.90;;;;;;4146268;28;20034;-66
2023/02/19 03:45:31;;;;;;;13.77;7.83;;;8.00;99.90;;;;;;4145179;28;20434;-63
2023/02/19 03:47:52;;;;;;;12.97;7.87;;;7.90;99.90;;;;;;4146250;28;20125;-64
2023/02/19 03:50:20;;;;;;;15.25;7.82;;;7.90;99.90;;;;;;4145143;28;20022;-69
2023/02/19 03:52:30;;;;;;;13.60;7.90;;;7.90;99.90;;;;;;4146315;28;20057;-63
2023/02/19 03:54:45;;;;;;;15.35;9.35;;;7.90;99.90;;;;;;4145124;28;20041;-64
2023/02/19 03:56:55;;;;;;;13.63;8.90;;;7.80;99.90;;;;;;4146194;28;20030;-64
2023/02/19 03:59:20;;;;;;;15.40;7.97;;;7.80;99.90;;;;;;4144659;28;20030;-68
2023/02/19 04:01:30;;;;;;;13.50;8.33;;;7.70;99.90;;;;;;4136977;28;20034;-63
2023/02/19 04:03:37;;;;;;;;;;;7.70;99.90;;;;;;4145229;28;20041;-62
2023/02/19 04:05:45;;;;;;;14.50;8.10;;;7.70;99.90;;;;;;4145964;28;19959;-62
2023/02/19 04:07:50;;;;;;;13.00;8.13;;;7.60;99.90;;;;;;4144429;28;20383;-63
2023/02/19 04:09:53;;;;;;;13.33;8.03;;;7.60;99.90;;;;;;4145892;28;20022;-63
2023/02/19 04:11:54;;;;;;;12.23;7.53;;;7.60;99.90;;;;;;4144650;28;20466;-64
2023/02/19 04:14:02;;;;;;;13.20;7.53;;;7.50;99.90;;;;;;4145942;28;20033;-63
2023/02/19 04:16:08;;;;;;;12.37;7.83;;;7.50;99.90;;;;;;4144615;28;20453;-62
2023/02/19 04:18:15;;;;;;;14.23;7.43;;;7.50;99.90;;;;;;4145726;28;20360;-61
2023/02/19 04:20:18;;;;;;;13.00;8.07;;;7.50;99.90;;;;;;4144621;28;20021;-62
2023/02/19 04:22:21;;;;;;;10.23;7.00;;;7.40;99.90;;;;;;4145815;28;20030;-63
2023/02/19 04:24:50;;;;;;;14.67;7.50;;;7.40;99.90;;;;;;4144693;28;20128;-62
2023/02/19 04:26:52;;;;;;;12.17;6.83;;;7.40;99.90;;;;;;4145840;28;20029;-62
2023/02/19 04:28:54;;;;;;;11.40;6.83;;;7.40;99.90;;;;;;4144420;28;20100;-62
2023/02/19 04:30:55;;;;;;;12.53;6.80;;;7.40;99.90;;;;;;4145605;28;20437;-61
2023/02/19 04:32:56;;;;;;;11.30;7.03;;;7.40;99.90;;;;;;4144696;28;20041;-61
2023/02/19 04:34:57;;;;;;;13.40;7.70;;;7.40;99.90;;;;;;4145504;28;20056;-62
2023/02/19 04:36:58;;;;;;;13.50;6.87;;;7.40;99.90;;;;;;4144336;28;20499;-62
2023/02/19 04:39:01;;;;;;;12.60;7.13;;;7.50;99.90;;;;;;4145132;28;20038;-62
2023/02/19 04:41:02;;;;;;;13.37;7.53;;;7.40;99.90;;;;;;4144779;28;20025;-62
2023/02/19 04:43:03;;;;;;;11.60;7.23;;;7.50;99.90;;;;;;4144841;28;20046;-62
2023/02/19 04:45:05;;;;;;;16.40;8.43;;;7.50;99.90;;;;;;4144720;28;20044;-62
2023/02/19 04:47:06;;;;;;;11.07;7.03;;;7.40;99.90;;;;;;4144449;28;20030;-63
2023/02/19 04:49:07;;;;;;;11.47;5.93;;;7.40;99.90;;;;;;4144624;28;20453;-62
2023/02/19 04:51:09;;;;;;;10.60;6.00;;;7.40;99.90;;;;;;4144241;28;20026;-62
2023/02/19 04:53:10;;;;;;;11.20;6.10;;;7.40;99.90;;;;;;4145845;28;20018;-63
2023/02/19 04:55:11;;;;;;;11.27;5.87;;;7.40;99.90;;;;;;4143750;28;20088;-62
2023/02/19 04:57:12;;;;;;;9.27;5.70;;;7.40;99.90;;;;;;4145172;28;20212;-63
2023/02/19 04:59:13;;;;;;;7.63;4.90;;;7.40;99.90;;;;;;4144196;28;20437;-67
2023/02/19 05:01:14;;;;;;;9.53;5.07;;;7.40;99.90;;;;;;4145239;28;20096;-62
2023/02/19 05:03:15;;;;;;;7.63;4.87;;;7.40;99.90;;;;;;4144213;28;20034;-62
2023/02/19 05:05:17;;;;;;;8.20;5.70;;;7.40;99.90;;;;;;4144367;28;20101;-63
2023/02/19 05:07:18;;;;;;;8.40;5.13;;;7.40;99.90;;;;;;4143737;28;20104;-62
2023/02/19 05:09:19;;;;;;;9.33;5.43;;;7.40;99.90;;;;;;4143709;28;20038;-68
2023/02/19 05:11:22;;;;;;;8.50;5.63;;;7.50;99.90;;;;;;4144587;28;20038;-65
2023/02/19 05:13:23;;;;;;;7.70;5.10;;;7.50;99.90;;;;;;4148050;28;20046;-62
2023/02/19 05:15:24;;;;;;;8.23;5.13;;;7.50;99.90;;;;;;4147800;28;20092;-62
2023/02/19 05:17:26;;;;;;;7.63;5.13;;;7.50;99.90;;;;;;4147660;28;20517;-62
2023/02/19 05:19:27;;;;;;;8.20;5.30;;;7.50;99.90;;;;;;4148221;28;20026;-64
2023/02/19 05:21:28;;;;;;;9.43;5.53;;;7.50;99.90;;;;;;4147088;28;20084;-63
2023/02/19 05:23:29;;;;;;;8.03;4.63;;;7.50;99.90;;;;;;4148584;28;20096;-62
2023/02/19 05:25:30;;;;;;;10.97;5.37;;;7.50;99.90;;;;;;4147325;28;20085;-61
2023/02/19 05:27:31;;;;;;;6.83;4.53;;;7.50;99.90;;;;;;4148202;28;20100;-63
2023/02/19 05:29:32;;;;;;;11.77;5.57;;;7.50;99.90;;;;;;4147446;28;20072;-63
2023/02/19 05:31:33;;;;;;;9.07;5.10;;;7.50;99.90;;;;;;4148309;28;20038;-64
2023/02/19 05:33:36;;;;;;;8.90;4.90;;;7.50;99.90;;;;;;4147242;28;20101;-63
2023/02/19 05:35:49;;;;;;;10.90;5.10;;;7.60;99.90;;;;;;4148383;28;20022;-63
2023/02/19 05:37:50;;;;;;;9.43;5.47;;;7.60;99.90;;;;;;4147189;28;20498;-67
2023/02/19 05:39:51;;;;;;;9.43;5.67;;;7.80;99.90;;;;;;4148172;28;20498;-61
2023/02/19 05:41:52;;;;;;;8.60;5.63;;;8.00;99.90;;;;;;4147042;28;20038;-61
2023/02/19 05:43:53;;;;;;;15.60;8.80;;;8.30;99.90;;;;;;4147757;28;20442;-62
2023/02/19 05:45:57;;;;;;;10.33;6.23;;;8.50;99.90;;;;;;4147277;28;20435;-65
2023/02/19 05:47:58;;;;;;;13.27;6.63;;;8.60;99.90;;;;;;4147500;28;20034;-63
2023/02/19 05:50:00;;;;;;;10.30;6.13;;;8.70;99.90;;;;;;4147342;28;20022;-62
2023/02/19 05:52:01;;;;;;;13.90;6.87;;;8.70;99.90;;;;;;4147024;28;20026;-63
2023/02/19 05:54:02;;;;;;;9.60;6.00;;;8.60;99.90;;;;;;4147960;28;20045;-63
2023/02/19 05:56:04;;;;;;;10.20;6.57;;;8.60;99.90;;;;;;4146858;28;20095;-63
2023/02/19 05:58:05;;;;;;;10.57;5.87;;;8.50;99.90;;;;;;4147916;28;20033;-61
2023/02/19 06:00:08;;;;;;;14.37;7.23;;;8.50;99.90;;;;;;4146695;28;20084;-63
2023/02/19 06:02:09;;;;;;;16.47;8.10;;;8.40;99.90;;;;;;4147595;28;20651;-64
2023/02/19 06:04:11;;;;;;;16.53;8.00;;;8.40;99.90;;;;;;4146724;28;21052;-63
2023/02/19 06:06:13;;;;;;;15.87;9.20;;;8.80;99.90;;;;;;4147613;28;20092;-63
2023/02/19 06:08:15;;;;;;;18.03;9.07;;;8.90;99.90;;;;;;4146395;28;20113;-63
2023/02/19 06:10:16;;;;;;;14.07;8.07;;;9.00;99.90;;;;;;4146305;28;20092;-62
2023/02/19 06:12:17;;;;;;;24.30;11.97;;;9.00;99.90;;;;;;4146606;28;20088;-62
2023/02/19 06:14:19;;;;;;;12.43;7.10;;;9.00;99.90;;;;;;4147621;28;20033;-66
2023/02/19 06:16:21;;;;;;;12.87;7.63;;;8.90;99.90;;;;;;4146600;28;20037;-64
2023/02/19 06:18:22;;;;;;;13.47;7.47;;;8.90;99.90;;;;;;4146843;28;20034;-64
2023/02/19 06:20:24;;;;;;;14.33;7.43;;;8.80;99.90;;;;;;4146791;28;20029;-64
2023/02/19 06:22:25;;;;;;;15.13;7.70;;;8.80;99.90;;;;;;4146033;28;20092;-64
2023/02/19 06:24:26;;;;;;;11.93;7.00;;;8.80;99.90;;;;;;4146932;28;20555;-64
2023/02/19 06:26:28;;;;;;;13.10;7.77;;;8.90;99.90;;;;;;4146235;28;20037;-63
2023/02/19 06:28:29;;;;;;;12.30;7.20;;;8.90;99.90;;;;;;4147053;28;20453;-63
2023/02/19 06:30:30;;;;;;;11.67;6.80;;;8.90;99.90;;;;;;4145893;28;20037;-63
2023/02/19 06:32:31;;;;;;;9.27;6.37;;;8.90;99.90;;;;;;4147258;28;20057;-63
2023/02/19 06:34:32;;;;;;;12.73;8.73;;;8.90;99.90;;;;;;4146170;28;20038;-63
2023/02/19 06:36:34;;;;;;;15.40;10.23;;;9.00;99.90;;;;;;4147088;28;20087;-65
2023/02/19 06:38:35;;;;;;;13.10;8.17;;;9.00;99.90;;;;;;4146079;28;20030;-62
2023/02/19 06:40:36;;;;;;;13.83;8.93;;;9.10;99.90;;;;;;4147257;28;20034;-62
2023/02/19 06:42:37;;;;;;;13.27;7.90;;;9.20;99.90;;;;;;4146010;28;20104;-62
2023/02/19 06:44:38;;;;;;;12.03;7.73;;;9.20;99.90;;;;;;4146899;28;20097;-64
2023/02/19 06:46:39;;;;;;;13.70;7.30;;;9.20;99.90;;;;;;4145996;28;20034;-63
2023/02/19 06:48:42;;;;;;;12.77;7.10;;;9.20;99.90;;;;;;4146556;28;20047;-62
2023/02/19 06:50:43;;;;;;;13.03;7.17;;;9.30;99.90;;;;;;4146277;28;20025;-62
2023/02/19 06:52:45;;;;;;;12.00;7.33;;;9.40;99.90;;;;;;4146333;28;20473;-63
2023/02/19 06:54:47;;;;;;;12.80;7.57;;;9.40;99.90;;;;;;4146567;28;20037;-64
2023/02/19 06:56:48;;;;;;;14.23;8.10;;;9.40;99.90;;;;;;4145692;28;20049;-63
2023/02/19 06:58:50;;;;;;;21.30;11.20;;;9.50;99.90;;;;;;4146659;28;20540;-66
2023/02/19 07:00:52;;;;;;;25.93;12.43;;;9.60;99.90;;;;;;4145637;28;20033;-63
2023/02/19 07:02:55;;;;;;;25.77;13.93;;;9.70;99.90;;;;;;4146778;28;20034;-62
2023/02/19 07:04:56;;;;;;;17.73;9.73;;;9.70;99.90;;;;;;4145182;28;20034;-62
2023/02/19 07:06:59;;;;;;;14.90;7.87;;;9.70;99.90;;;;;;4146404;28;20506;-63
2023/02/19 07:09:00;;;;;;;15.20;7.97;;;9.70;99.90;;;;;;4145217;28;20858;-64
2023/02/19 07:11:01;;;;;;;14.87;8.77;;;9.60;99.90;;;;;;4146606;28;20037;-64
2023/02/19 07:13:03;;;;;;;13.83;7.27;;;9.50;99.90;;;;;;4145372;28;20042;-62
2023/02/19 07:15:04;;;;;;;11.90;6.97;;;9.50;99.90;;;;;;4146483;28;20034;-64
2023/02/19 07:17:05;;;;;;;12.47;7.53;;;9.50;99.90;;;;;;4145506;28;20470;-63
2023/02/19 07:19:06;;;;;;;15.33;8.90;;;9.50;99.90;;;;;;4146270;28;20026;-66
2023/02/19 07:21:10;;;;;;;21.83;11.77;;;9.50;99.90;;;;;;4145479;28;20355;-64
2023/02/19 07:23:11;;;;;;;8.53;5.27;;;9.50;99.90;;;;;;4146291;28;20088;-64
2023/02/19 07:25:12;;;;;;;8.13;4.87;;;9.40;99.90;;;;;;4145774;28;20034;-63
2023/02/19 07:27:14;;;;;;;10.90;5.60;;;9.40;99.90;;;;;;4145564;28;20147;-63
2023/02/19 07:29:15;;;;;;;14.47;6.00;;;9.50;99.90;;;;;;4145067;28;21043;-63
2023/02/19 07:31:18;;;;;;;11.07;5.70;;;9.50;99.90;;;;;;4144965;28;20100;-64
2023/02/19 07:33:19;;;;;;;10.07;5.63;;;9.60;99.90;;;;;;4146015;28;20761;-70
2023/02/19 07:35:20;;;;;;;11.17;5.83;;;9.60;99.90;;;;;;4143837;28;20088;-64
2023/02/19 07:37:22;;;;;;;7.90;5.13;;;9.60;99.90;;;;;;4145311;28;20041;-62
2023/02/19 07:39:23;;;;;;;9.77;5.00;;;9.60;99.90;;;;;;4144553;28;20042;-63
2023/02/19 07:41:25;;;;;;;8.23;5.30;;;9.60;99.90;;;;;;4146045;28;20061;-63
2023/02/19 07:43:35;;;;;;;11.83;5.47;;;9.60;99.90;;;;;;4144374;28;20092;-63
2023/02/19 07:45:36;;;;;;;53.93;23.83;;;9.70;99.90;;;;;;4145754;28;20033;-64
2023/02/19 07:47:37;;;;;;;23.97;13.00;;;9.70;99.90;;;;;;4144623;28;20100;-63
2023/02/19 07:49:38;;;;;;;37.80;23.33;;;9.80;99.90;;;;;;4145964;28;20049;-62
2023/02/19 07:51:40;;;;;;;34.60;20.40;;;9.90;99.90;;;;;;4144620;28;20123;-62
2023/02/19 07:53:41;;;;;;;18.37;11.97;;;10.00;99.90;;;;;;4145953;28;20026;-69
2023/02/19 07:55:42;;;;;;;10.00;6.30;;;10.10;99.90;;;;;;4144338;28;20030;-63
2023/02/19 07:57:43;;;;;;;7.00;5.57;;;10.30;99.90;;;;;;4145102;28;20045;-62
2023/02/19 07:59:44;;;;;;;7.00;5.30;;;10.50;99.90;;;;;;4145174;28;20061;-63
2023/02/19 08:04:06;;;;;;;4.50;3.23;;;10.80;99.90;;;;;;4145453;28;20038;-63
2023/02/19 08:06:07;;;;;;;5.50;3.10;;;11.00;99.90;;;;;;4144595;28;20469;-65
2023/02/19 08:08:12;;;;;;;8.37;4.10;;;11.20;99.90;;;;;;4144967;28;20072;-64
2023/02/19 08:14:52;;;;;;;6.23;3.40;;;11.70;99.90;;;;;;4144948;28;20544;-63
2023/02/19 08:16:53;;;;;;;4.80;3.43;;;11.80;99.90;;;;;;4145101;28;20072;-64
2023/02/19 08:18:54;;;;;;;5.97;2.97;;;11.80;99.90;;;;;;4144415;28;20029;-66
2023/02/19 08:20:56;;;;;;;4.13;1.87;;;12.00;99.90;;;;;;4145350;28;20026;-64
2023/02/19 08:22:57;;;;;;;3.33;1.87;;;12.00;99.90;;;;;;4144130;28;20470;-62
2023/02/19 08:24:58;;;;;;;4.90;2.50;;;12.10;99.90;;;;;;4145654;28;20056;-65
2023/02/19 08:26:59;;;;;;;4.83;2.70;;;12.20;99.90;;;;;;4144097;28;20097;-63
2023/02/19 08:29:01;;;;;;;2.97;2.23;;;12.50;99.90;;;;;;4145207;28;20046;-64
2023/02/19 08:31:05;;;;;;;4.10;1.90;;;12.90;99.90;;;;;;4144309;28;20037;-65
2023/02/19 08:33:07;;;;;;;5.67;2.17;;;13.00;99.90;;;;;;4145229;28;20495;-63
2023/02/19 08:35:08;;;;;;;2.67;1.90;;;13.10;99.90;;;;;;4144749;28;20131;-66
2023/02/19 08:37:09;;;;;;;2.27;1.80;;;13.20;99.90;;;;;;4145804;28;20498;-64
2023/02/19 08:39:10;;;;;;;2.67;1.80;;;13.20;99.90;;;;;;4144386;28;20091;-63
2023/02/19 08:41:13;;;;;;;4.97;2.40;;;13.40;99.90;;;;;;4145002;28;20111;-64
2023/02/19 08:43:16;;;;;;;2.23;2.03;;;13.60;99.90;;;;;;4144467;28;20026;-62
2023/02/19 08:45:17;;;;;;;3.80;2.47;;;13.80;99.90;;;;;;4144181;28;20034;-63
2023/02/19 08:47:19;;;;;;;1.73;1.63;;;13.90;99.90;;;;;;4144861;28;20462;-63
2023/02/19 08:49:20;;;;;;;2.43;1.90;;;13.80;99.90;;;;;;4144314;28;20033;-64
2023/02/19 08:51:21;;;;;;;4.57;2.13;;;13.50;99.90;;;;;;4144893;28;20538;-64
2023/02/19 08:53:23;;;;;;;6.27;2.77;;;13.30;99.90;;;;;;4144455;28;20469;-64
2023/02/19 08:55:24;;;;;;;4.27;2.67;;;13.10;99.90;;;;;;4145439;28;20022;-65
2023/02/19 08:57:27;;;;;;;2.40;1.90;;;13.10;99.90;;;;;;4144228;28;20025;-64
2023/02/19 08:59:29;;;;;;;4.93;2.37;;;12.90;99.90;;;;;;4145320;28;20026;-67
2023/02/19 09:01:30;;;;;;;5.57;2.03;;;12.90;99.90;;;;;;4144110;28;20029;-67
2023/02/19 09:03:31;;;;;;;7.10;2.47;;;12.80;99.90;;;;;;4145298;28;20539;-65
2023/02/19 09:05:32;;;;;;;2.53;1.60;;;12.80;99.90;;;;;;4143930;28;20471;-64
2023/02/19 09:07:33;;;;;;;3.43;1.60;;;12.70;99.90;;;;;;4144702;28;20120;-68
2023/02/19 09:09:38;;;;;;;1.93;1.60;;;12.70;99.90;;;;;;4145851;28;20099;-68
2023/02/19 09:11:39;;;;;;;6.13;2.50;;;12.80;99.90;;;;;;4151413;28;20083;-64
2023/02/19 09:13:40;;;;;;;2.30;1.40;;;12.90;99.90;;;;;;4143954;28;20030;-65
2023/02/19 09:15:41;;;;;;;4.30;1.10;;;12.90;99.90;;;;;;4144799;28;20029;-65
2023/02/19 09:17:42;;;;;;;1.83;1.30;;;12.80;99.90;;;;;;4144015;28;20037;-63
2023/02/19 09:19:43;;;;;;;7.77;1.70;;;12.80;99.90;;;;;;4145198;28;20447;-66
2023/02/19 09:21:45;;;;;;;4.03;1.17;;;12.90;99.90;;;;;;4144287;28;20103;-64
2023/02/19 09:23:46;;;;;;;2.97;1.50;;;13.00;99.90;;;;;;4144368;28;20046;-63
2023/02/19 09:25:47;;;;;;;3.77;1.73;;;13.20;99.90;;;;;;4143344;28;20084;-65
2023/02/19 09:27:48;;;;;;;1.87;1.07;;;13.50;99.90;;;;;;4143993;28;20492;-65
2023/02/19 09:29:49;;;;;;;2.63;1.40;;;13.70;99.90;;;;;;4145049;28;20100;-64
2023/02/19 09:31:50;;;;;;;4.77;1.30;;;13.80;99.90;;;;;;4143934;28;20564;-65
2023/02/19 09:33:51;;;;;;;3.93;1.00;;;13.80;99.90;;;;;;4144983;28;20029;-63
2023/02/19 09:35:52;;;;;;;1.90;0.97;;;13.70;99.90;;;;;;4143653;28;20034;-64
2023/02/19 09:37:53;;;;;;;2.17;1.30;;;13.80;99.90;;;;;;4137328;28;20101;-64
2023/02/19 09:39:55;;;;;;;3.43;0.70;;;14.00;99.90;;;;;;4127649;28;20426;-65
2023/02/19 09:42:01;;;;;;;1.53;0.77;;;14.20;99.80;;;;;;4128584;28;20080;-65
2023/02/19 09:44:05;;;;;;;1.57;0.80;;;14.30;99.20;;;;;;4136286;28;20064;-65
2023/02/19 09:46:22;;;;;;;1.70;0.57;;;14.30;98.70;;;;;;4144618;28;20104;-63
2023/02/19 09:48:23;;;;;;;1.83;0.70;;;14.20;98.40;;;;;;4143532;28;20076;-62
2023/02/19 09:50:33;;;;;;;1.20;0.60;;;14.00;98.00;;;;;;4144429;28;20034;-74
2023/02/19 09:52:40;;;;;;;1.27;0.70;;;13.90;97.70;;;;;;4143328;28;20034;-63
2023/02/19 09:54:42;;;;;;;2.13;0.77;;;13.80;98.00;;;;;;4128762;28;20389;-65
2023/02/19 09:56:43;;;;;;;1.17;0.70;;;13.70;98.10;;;;;;4128235;28;20360;-64
2023/02/19 09:58:51;;;;;;;1.27;0.70;;;13.70;98.10;;;;;;4130221;28;20850;-62
2023/02/19 10:00:54;;;;;;;2.70;1.00;;;13.60;97.80;;;;;;4130689;28;20534;-62
2023/02/19 10:03:30;;;;;;;2.80;1.10;;;13.60;98.00;;;;;;4130594;28;20045;-64
2023/02/19 10:05:33;;;;;;;2.30;0.90;;;13.70;97.60;;;;;;4141568;28;20030;-64
2023/02/19 10:07:40;;;;;;;2.60;0.93;;;13.80;97.90;;;;;;4152498;28;20049;-66
2023/02/19 10:09:45;;;;;;;1.13;0.43;;;13.80;97.80;;;;;;4152641;28;20517;-64
2023/02/19 10:11:48;;;;;;;6.23;1.10;;;13.70;97.50;;;;;;4150830;28;20417;-66
2023/02/19 10:14:20;;;;;;;7.97;3.83;;;13.70;97.60;;;;;;4153408;28;20092;-68
2023/02/19 10:16:25;;;;;;;2.40;1.10;;;13.50;96.90;;;;;;4151682;28;20095;-64
2023/02/19 10:18:29;;;;;;;6.60;1.27;;;13.50;97.10;;;;;;4160859;28;20041;-63
2023/02/19 10:20:31;;;;;;;1.33;0.50;;;13.60;97.60;;;;;;4148975;28;20034;-72
2023/02/19 10:22:35;;;;;;;2.37;0.40;;;13.70;97.30;;;;;;4146810;28;20038;-64
2023/02/19 10:24:37;;;;;;;3.60;1.00;;;13.60;96.80;;;;;;4154654;28;20041;-62
2023/02/19 10:26:38;;;;;;;7.37;0.60;;;13.60;97.20;;;;;;4150574;28;20157;-63
2023/02/19 10:28:39;;;;;;;1.50;0.60;;;13.60;97.30;;;;;;4145808;28;20837;-64
2023/02/19 10:30:40;;;;;;;3.33;0.70;;;13.60;97.20;;;;;;4146934;28;20034;-66
2023/02/19 10:33:07;;;;;;;2.50;0.80;;;13.60;97.40;;;;;;4145542;28;20437;-63
2023/02/19 10:35:15;;;;;;;3.63;1.17;;;13.70;97.70;;;;;;4147595;28;20504;-63
2023/02/19 10:37:17;;;;;;;3.30;0.53;;;13.80;97.70;;;;;;4162229;28;20432;-68
2023/02/19 10:39:21;;;;;;;0.97;0.50;;;13.60;97.30;;;;;;4151876;28;20033;-66
2023/02/19 10:41:27;;;;;;;2.97;0.53;;;13.50;97.10;;;;;;4148620;28;20030;-68
2023/02/19 10:43:35;;;;;;;2.30;0.60;;;13.40;97.50;;;;;;4162960;28;20456;-64
2023/02/19 10:45:51;;;;;;;0.97;0.67;;;13.40;97.50;;;;;;4156919;28;20348;-64
2023/02/19 10:47:53;;;;;;;2.17;0.67;;;13.50;97.80;;;;;;4162865;28;20041;-63
2023/02/19 10:49:57;;;;;;;1.77;0.27;;;13.40;97.90;;;;;;4159158;28;20041;-60
2023/02/19 10:52:21;;;;;;;0.93;0.60;;;13.40;97.70;;;;;;4146736;28;20029;-65
2023/02/19 10:54:30;;;;;;;1.43;0.60;;;13.30;97.70;;;;;;4149143;28;20092;-67
2023/02/19 10:56:32;;;;;;;5.43;0.80;;;13.20;98.00;;;;;;4161773;28;20376;-67
2023/02/19 10:58:35;;;;;;;4.33;0.50;;;13.20;98.00;;;;;;4160123;28;20413;-65
2023/02/19 11:00:36;;;;;;;0.93;0.30;;;13.30;97.70;;;;;;4147961;28;20068;-64
2023/02/19 11:02:37;;;;;;;1.30;0.50;;;13.30;97.50;;;;;;4145572;28;20081;-64
2023/02/19 11:04:39;;;;;;;1.00;0.50;;;13.40;97.50;;;;;;4146048;28;20096;-64
2023/02/19 11:06:40;;;;;;;1.60;0.70;;;13.40;97.50;;;;;;4145271;28;20046;-65
2023/02/19 11:08:59;;;;;;;2.23;0.77;;;13.40;97.40;;;;;;4152587;28;20038;-67
2023/02/19 11:11:00;;;;;;;4.10;0.60;;;13.50;96.80;;;;;;4160479;28;20042;-67